Dades de l'estació automàtica Prades
Resum diari
21:30 TU| Temperatura mitjana | 10.8 °C | |
|---|---|---|
| Temperatura màxima | 18.1 °C | 10:16 TU |
| Temperatura mínima | 2.9 °C | 21:59 TU |
| Humitat relativa mitjana | 91% | |
| Precipitació acumulada | 7.3 mm | |
| Gruix de neu màxim | 7 cm | |
| Ratxa màxima del vent (2 m) | 19.1 km/h - 281º | 18:20 TU |
| Irradiació solar global | 12.3 MJ/m2 | |
El tram horari està expressat en Temps Universal (TU). Cal sumar una hora en horari d'hivern i dues en horari d'estiu per passar a l'hora oficial.
Prades
| Municipi | Prades |
|---|---|
| Comarca | Baix Camp |
| Altitud | 927 m |
| Data alta | 31.01.2013 |
| Estat actual | Operativa |
| Període TU |
TM °C |
TX °C |
TN °C |
HRM % |
PPT mm |
GN cm |
VVM (2 m) km/h |
DVM (2 m) graus |
VVX (2 m) km/h |
RS W/m2 |
|---|---|---|---|---|---|---|---|---|---|---|
| 00:00 - 00:30 | 7.5 | 7.6 | 7.4 | 100 | 0.0 | 0 | 2.2 | 112 | 5.0 | 0 |
| 00:30 - 01:00 | 7.4 | 7.6 | 7.1 | 100 | 0.0 | 0 | 0.7 | 105 | 4.3 | 0 |
| 01:00 - 01:30 | 7.5 | 8.4 | 7.1 | 100 | 0.0 | 0 | 1.1 | 114 | 7.6 | 0 |
| 01:30 - 02:00 | 8.4 | 8.5 | 8.0 | 100 | 0.0 | 0 | 1.4 | 127 | 6.1 | 0 |
| 02:00 - 02:30 | 8.0 | 8.1 | 7.9 | 100 | 0.0 | 0 | 1.1 | 191 | 4.7 | 0 |
| 02:30 - 03:00 | 8.1 | 8.3 | 7.9 | 100 | 0.0 | 0 | 0.4 | 285 | 2.9 | 0 |
| 03:00 - 03:30 | 8.1 | 8.4 | 7.5 | 100 | 0.0 | 0 | 0.7 | 83 | 4.7 | 0 |
| 03:30 - 04:00 | 7.1 | 7.5 | 6.8 | 100 | 0.0 | 0 | 0.7 | 112 | 2.9 | 0 |
| 04:00 - 04:30 | 7.7 | 8.0 | 7.4 | 100 | 0.0 | 0 | 1.1 | 124 | 4.3 | 0 |
| 04:30 - 05:00 | 7.7 | 8.0 | 7.4 | 100 | 0.0 | 0 | 0.7 | 138 | 2.5 | 0 |
| 05:00 - 05:30 | 7.5 | 7.7 | 7.3 | 100 | 0.0 | 0 | 0.4 | 178 | 4.3 | 15 |
| 05:30 - 06:00 | 8.1 | 9.4 | 7.3 | 100 | 0.0 | 0 | 1.1 | 142 | 7.2 | 64 |
| 06:00 - 06:30 | 10.2 | 10.7 | 9.5 | 96 | 0.0 | 0 | 2.2 | 88 | 6.1 | 134 |
| 06:30 - 07:00 | 12.1 | 12.7 | 10.9 | 89 | 0.0 | 0 | 2.2 | 68 | 7.9 | 223 |
| 07:00 - 07:30 | 12.9 | 13.2 | 12.4 | 86 | 0.0 | 0 | 3.6 | 283 | 10.1 | 292 |
| 07:30 - 08:00 | 13.0 | 13.5 | 12.6 | 86 | 0.0 | 0 | 4.3 | 277 | 15.1 | 259 |
| 08:00 - 08:30 | 14.7 | 16.1 | 13.1 | 78 | 0.0 | 0 | 2.5 | 300 | 9.0 | 500 |
| 08:30 - 09:00 | 16.3 | 17.0 | 15.7 | 65 | 0.0 | 6 | 2.2 | 296 | 6.5 | 568 |
| 09:00 - 09:30 | 16.1 | 16.6 | 15.6 | 60 | 0.0 | 5 | 3.2 | 287 | 10.1 | 430 |
| 09:30 - 10:00 | 16.4 | 16.9 | 16.0 | 60 | 0.0 | 4 | 4.0 | 277 | 11.5 | 472 |
| 10:00 - 10:30 | 17.0 | 18.1 | 16.2 | 60 | 0.0 | 4 | 4.7 | 274 | 14.0 | 603 |
| 10:30 - 11:00 | 15.6 | 16.6 | 14.5 | 72 | 0.0 | 4 | 4.7 | 285 | 12.6 | 192 |
| 11:00 - 11:30 | 15.0 | 15.7 | 14.4 | 76 | 0.0 | 4 | 3.2 | 314 | 14.8 | 280 |
| 11:30 - 12:00 | 15.2 | 15.6 | 14.8 | 76 | 0.0 | 4 | 4.7 | 264 | 11.9 | 332 |
| 12:00 - 12:30 | 13.7 | 14.8 | 12.6 | 89 | 0.8 | 6 | 5.0 | 262 | 11.9 | 110 |
| 12:30 - 13:00 | 12.4 | 12.6 | 12.2 | 100 | 1.6 | 7 | 3.6 | 261 | 16.9 | 115 |
| 13:00 - 13:30 | 12.8 | 13.4 | 12.2 | 97 | 0.0 | 5 | 1.8 | 286 | 4.3 | 299 |
| 13:30 - 14:00 | 14.1 | 14.9 | 13.4 | 86 | 0.0 | 4 | 1.4 | 327 | 5.0 | 380 |
| 14:00 - 14:30 | 14.0 | 14.4 | 13.8 | 85 | 0.0 | 6 | 1.8 | 261 | 7.6 | 272 |
| 14:30 - 15:00 | 13.9 | 14.3 | 13.6 | 86 | 0.0 | 6 | 1.8 | 167 | 6.5 | 205 |
| 15:00 - 15:30 | 13.2 | 13.5 | 13.0 | 100 | 0.0 | 6 | 1.4 | 143 | 6.8 | 147 |
| 15:30 - 16:00 | 13.6 | 14.6 | 12.9 | 95 | 0.0 | 6 | 2.2 | 127 | 8.6 | 369 |
| 16:00 - 16:30 | 14.2 | 15.2 | 13.9 | 85 | 0.0 | 6 | 2.2 | 182 | 8.6 | 336 |
| 16:30 - 17:00 | 13.8 | 14.5 | 13.1 | 87 | 0.0 | 2 | 2.5 | 236 | 9.4 | 129 |
| 17:00 - 17:30 | 12.1 | 13.0 | 10.8 | 98 | 3.3 | 5 | 4.7 | 266 | 14.0 | 23 |
| 17:30 - 18:00 | 10.0 | 10.6 | 9.8 | 100 | 0.5 | 6 | 1.4 | 226 | 8.3 | 59 |
| 18:00 - 18:30 | 10.2 | 10.7 | 8.8 | 100 | 1.0 | 7 | 5.0 | 286 | 19.1 | 17 |
| 18:30 - 19:00 | 8.4 | 8.8 | 8.1 | 100 | 0.1 | 7 | 4.3 | 310 | 13.3 | 14 |
| 19:00 - 19:30 | 7.6 | 8.1 | 6.8 | 100 | 0.0 | 7 | 0.7 | 314 | 6.1 | 0 |
| 19:30 - 20:00 | 6.1 | 6.8 | 5.5 | 100 | 0.0 | 7 | 0.4 | 92 | 1.8 | 0 |
| 20:00 - 20:30 | 5.2 | 5.5 | 4.9 | 100 | 0.0 | 7 | 0.4 | 98 | 2.9 | 0 |
| 20:30 - 21:00 | 4.6 | 4.9 | 4.3 | 100 | 0.0 | 7 | 0.4 | 92 | 2.5 | 0 |
| 21:00 - 21:30 | 3.8 | 4.3 | 3.4 | 100 | 0.0 | 7 | 0.4 | 85 | 2.2 | 0 |
| 21:30 - 22:00 | 3.2 | 3.6 | 2.9 | 100 | 0.0 | 6 | 0.4 | 56 | 2.5 | 0 |
| 22:00 - 22:30 | (s/d) | (s/d) | (s/d) | (s/d) | (s/d) | (s/d) | (s/d) | (s/d) | (s/d) | (s/d) |
Les dades en taronja només han passat un control de qualitat automàtic. Resta pendent la seva validació definitiva.